CÀNOVES I SAMALÚS (Vallès Oriental)





Hora UTC 21:40
Temperatura 21.7 ºC
Humedad 78.4 %
Presión 1015.4 hPa
Pluja 0.0 mm
Velocidad viento 0.8 km/h
Dirección viento WNW
Radiación solar 0.1 W/m²

Datos diarios 2024-07-24



Hora UTC (invierno +1h; verano +2h)
Temperatura (ºC) Humedad (%) Presión (hPa) Velocidad viento (km/h) Precipitación (mm) Radiación solar (W/m²)
Hora UTC Aire Humedad Presión Vel. Dir. Vel. Max Dir. Intent. máx 5 min. Rad. Sol.
00:05 21.9 81.8 1018.9 2.1 N 2.1 NNW 0.0 0.1
00:10 21.8 81.0 1018.9 3.1 NNW 6.7 NNW 0.0 0.1
00:15 21.7 80.6 1018.9 2.4 NW 4.2 NW 0.0 0.1
00:20 21.6 80.4 1018.9 2.3 NNW 4.9 NNW 0.0 0.1
00:25 21.6 80.6 1018.9 2.7 NW 6.0 NW 0.0 0.1
00:30 21.6 80.6 1018.8 3.2 NNW 5.6 NNW 0.0 0.1
00:35 21.6 80.8 1018.8 2.5 NNW 4.6 NNW 0.0 0.1
00:40 21.6 79.6 1018.7 3.7 NNW 6.7 NW 0.0 0.1
00:45 21.7 78.2 1018.7 4.3 NW 8.1 N 0.0 0.1
00:50 21.7 78.2 1018.7 2.9 NW 4.2 NW 0.0 0.1
00:55 21.6 78.8 1018.6 3.6 NW 5.3 NW 0.0 0.1
01:00 21.5 79.0 1018.6 3.0 NNW 5.3 NW 0.0 0.1
01:05 21.5 79.2 1018.6 3.3 N 8.1 NNW 0.0 0.1
01:10 21.4 78.8 1018.6 2.4 NNW 5.3 N 0.0 0.1
01:15 21.4 79.2 1018.7 2.3 NNW 4.6 NNE 0.0 0.1
01:20 21.4 79.2 1018.7 1.8 NW 3.2 NW 0.0 0.1
01:25 21.3 79.4 1018.7 4.0 NW 6.0 NW 0.0 0.1
01:30 21.4 78.2 1018.7 5.2 NW 7.4 N 0.0 0.1
01:35 21.6 77.4 1018.6 4.5 NNW 6.7 NNW 0.0 0.1
01:40 21.7 76.5 1018.6 3.4 NW 5.3 NNW 0.0 0.1
01:45 21.7 76.6 1018.5 3.7 NW 7.1 NNW 0.0 0.1
01:50 21.7 76.1 1018.5 4.5 NW 9.9 NNW 0.0 0.1
01:55 21.8 75.0 1018.5 3.3 NW 6.4 NW 0.0 0.1
02:00 21.8 75.8 1018.4 0.4 NNW 3.9 NNW 0.0 0.1
02:05 21.8 76.3 1018.4 0.3 NNW 3.9 NNW 0.0 0.1
02:10 21.6 76.9 1018.3 0.2 NNW 2.5 NW 0.0 0.1
02:15 21.4 77.2 1018.2 2.2 NW 5.6 NNW 0.0 0.1
02:20 21.4 77.5 1018.2 2.0 NW 4.9 NW 0.0 0.1
02:25 21.4 77.1 1018.2 1.4 NW 4.2 NW 0.0 0.1
02:30 21.5 76.5 1018.2 1.0 N 5.3 NNW 0.0 0.1
02:35 21.7 76.4 1018.1 0.7 NNE 2.5 NNE 0.0 0.1
02:40 21.6 76.3 1018.1 0.2 NE 2.1 NE 0.0 0.1
02:45 21.5 76.7 1018.1 1.4 NNW 3.9 WNW 0.0 0.1
02:50 21.5 76.4 1018.1 3.7 NW 5.6 WNW 0.0 0.1
02:55 21.7 74.6 1018.0 3.5 NW 7.4 NW 0.0 0.1
03:00 21.9 72.8 1018.0 5.3 NW 8.1 NNW 0.0 0.1
03:05 22.3 70.9 1018.0 3.9 NW 8.5 NW 0.0 0.1
03:10 22.4 70.3 1017.9 3.5 NW 6.4 N 0.0 0.1
03:15 22.5 69.0 1017.9 4.2 NW 8.8 WNW 0.0 0.1
03:20 22.5 68.6 1017.9 3.8 NW 12.7 NNW 0.0 0.1
03:25 22.4 68.8 1017.9 4.4 NW 9.5 NW 0.0 0.1
03:30 22.3 68.6 1017.9 4.2 WNW 9.2 NW 0.0 0.1
03:35 22.2 69.6 1017.9 2.4 NW 5.6 NW 0.0 0.1
03:40 22.0 70.4 1018.0 2.7 NNW 4.6 NNW 0.0 0.1
03:45 21.8 71.0 1018.0 4.5 NNW 6.7 NNW 0.0 0.1
03:50 21.6 71.1 1018.0 4.5 NNW 6.4 NNW 0.0 0.1
03:55 21.6 70.7 1018.1 2.8 NNW 5.6 NNE 0.0 0.1
04:00 21.5 71.2 1018.2 1.4 NW 4.2 NNW 0.0 0.1
04:05 21.2 71.8 1018.2 5.2 NNW 8.1 NNW 0.0 0.1
04:10 21.2 72.1 1018.3 2.3 N 4.2 NNW 0.0 0.1
04:15 20.9 72.7 1018.3 3.3 NW 6.0 NW 0.0 0.2
04:20 20.7 74.1 1018.3 4.3 NNW 7.4 NNW 0.0 0.4
04:25 20.6 75.2 1018.3 2.2 N 4.9 N 0.0 1.0
04:30 20.4 76.3 1018.3 3.9 NNW 5.6 NNW 0.0 1.8
04:35 20.4 76.6 1018.4 2.0 NNW 4.9 NW 0.0 3.1
04:40 20.4 76.9 1018.3 4.6 NNW 7.8 NNW 0.0 4.8
04:45 20.7 74.3 1018.3 5.0 NW 9.5 NW 0.0 7.0
04:50 21.0 72.3 1018.3 5.3 NNW 10.9 NNW 0.0 9.3
04:55 21.3 71.5 1018.3 5.4 NW 10.9 NW 0.0 11.6
05:00 21.4 71.3 1018.2 4.1 NNW 6.7 NNW 0.0 13.9
05:05 21.5 71.4 1018.2 3.0 NW 7.4 NNW 0.0 16.4
05:10 21.6 69.6 1018.2 3.4 NNW 9.2 N 0.0 20.0
05:15 22.0 68.3 1018.2 4.5 NNW 10.6 NNW 0.0 25.9
05:20 22.3 67.3 1018.2 3.0 NNW 12.0 NW 0.0 24.2
05:25 22.5 66.9 1018.2 3.0 NNW 7.4 NNW 0.0 25.6
05:30 22.5 66.6 1018.2 2.6 N 8.8 NW 0.0 42.0
05:35 22.7 66.4 1018.2 3.5 N 10.6 NW 0.0 107.4
05:40 23.1 65.1 1018.3 2.7 N 7.8 NNW 0.0 120.5
05:45 23.5 64.3 1018.3 3.8 N 8.8 NNE 0.0 134.8
05:50 23.8 63.9 1018.3 4.0 N 8.8 NNW 0.0 148.3
05:55 24.0 63.4 1018.3 3.2 N 9.2 NNE 0.0 161.1
06:00 24.2 62.6 1018.3 4.1 N 10.2 N 0.0 173.0
06:05 24.3 62.5 1018.3 4.6 NNE 9.9 N 0.0 185.7
06:10 24.4 62.1 1018.3 4.3 NNE 8.1 NNW 0.0 199.4
06:15 24.5 63.0 1018.3 4.3 N 8.1 N 0.0 213.1
06:20 25.0 61.7 1018.4 4.6 N 9.2 NNW 0.0 227.7
06:25 25.4 60.8 1018.4 3.5 N 7.1 N 0.0 210.2
06:30 25.7 60.1 1018.4 4.8 N 8.5 N 0.0 180.0
06:35 25.8 59.6 1018.4 5.4 N 9.5 N 0.0 81.9
06:40 25.9 59.5 1018.4 5.4 N 7.8 N 0.0 84.8
06:45 26.3 60.1 1018.4 2.7 NNE 5.6 N 0.0 63.7
06:50 26.8 58.9 1018.4 1.7 NE 4.2 NNE 0.0 195.8
06:55 27.0 58.2 1018.4 1.1 ENE 3.2 NNE 0.0 126.3
07:00 26.9 58.5 1018.4 3.3 ESE 6.7 E 0.0 59.1
07:05 26.7 58.4 1018.3 5.0 ESE 7.4 E 0.0 46.7
07:10 26.7 58.8 1018.3 4.8 ESE 6.7 ESE 0.0 47.2
07:15 26.8 59.3 1018.4 4.3 SE 6.7 SE 0.0 47.6
07:20 27.0 57.7 1018.3 5.7 E 11.3 SE 0.0 61.2
07:25 26.9 57.6 1018.3 5.4 SE 8.5 SE 0.0 58.7
07:30 26.8 58.1 1018.3 7.4 SE 11.3 ESE 0.0 301.6
07:35 26.9 57.9 1018.3 5.2 SSE 9.5 SE 0.0 79.5
07:40 27.0 58.2 1018.3 8.4 SSE 13.8 SSE 0.0 69.0
07:45 27.0 57.5 1018.3 6.6 SSE 10.9 SE 0.0 89.9
07:50 27.1 57.9 1018.3 7.0 SSE 11.6 SSE 0.0 69.0
07:55 27.1 57.8 1018.2 6.8 SE 13.8 E 0.0 77.9
08:00 27.2 59.0 1018.2 6.1 ESE 10.2 E 0.0 469.6
08:05 27.3 57.9 1018.1 6.4 SE 12.0 ESE 0.0 532.0
08:10 27.5 56.6 1018.1 8.5 SSE 16.6 SE 0.0 546.1
08:15 27.6 56.1 1018.1 8.5 SSE 13.1 SSE 0.0 559.1
08:20 27.6 56.0 1018.1 4.0 SSE 9.2 SE 0.0 572.1
08:25 27.8 55.2 1018.1 1.9 NE 6.4 ENE 0.0 583.7
08:30 28.3 55.2 1018.1 7.2 ESE 12.7 ENE 0.0 598.2
08:35 28.3 51.4 1018.1 5.3 SSW 9.5 SSE 0.0 611.6
08:40 28.6 48.5 1018.1 5.7 S 9.2 S 0.0 624.2
08:45 29.0 48.2 1018.1 5.9 SW 13.8 SSE 0.0 636.1
08:50 29.2 46.9 1018.0 8.0 SW 15.2 S 0.0 649.8
08:55 29.4 44.7 1018.0 4.6 S 11.6 SSE 0.0 663.2
09:00 29.6 44.0 1017.9 7.5 S 11.6 SSE 0.0 675.9
09:05 29.8 42.8 1017.8 5.9 SE 15.5 SSW 0.0 686.2
09:10 30.0 39.5 1017.9 7.8 SSW 13.4 SSW 0.0 698.4
09:15 30.4 40.7 1017.8 6.7 SSE 14.1 SSW 0.0 710.5
09:20 30.6 38.7 1017.8 9.1 SSE 13.8 SE 0.0 678.0
09:25 30.4 38.5 1017.7 11.4 SSE 19.4 SW 0.0 721.3
09:30 30.5 39.9 1017.8 7.2 S 14.5 SSE 0.0 740.5
09:35 30.5 40.1 1017.7 8.3 S 19.8 SSE 0.0 747.1
09:40 30.8 41.1 1017.6 5.4 WSW 10.6 SSE 0.0 757.8
09:45 30.9 40.6 1017.6 12.3 S 19.1 SSW 0.0 768.0
09:50 30.5 42.2 1017.6 5.9 SSW 15.2 S 0.0 778.5
09:55 30.6 45.5 1017.6 6.4 SSE 15.5 S 0.0 788.3
10:00 30.8 44.0 1017.6 9.3 SSE 17.3 SE 0.0 796.0
10:05 30.8 46.2 1017.5 10.7 SE 18.7 ESE 0.0 802.0
10:10 30.5 47.1 1017.5 10.8 SE 19.4 S 0.0 808.0
10:15 30.6 46.4 1017.5 9.6 SSE 18.4 S 0.0 815.0
10:20 30.5 47.7 1017.5 8.1 SE 13.4 SSW 0.0 822.0
10:25 30.6 48.4 1017.4 8.6 SE 15.5 SE 0.0 829.0
10:30 30.6 48.7 1017.4 8.8 SE 18.7 ESE 0.0 836.0
10:35 30.7 48.4 1017.3 10.3 SSE 19.1 SW 0.0 839.0
10:40 30.9 47.9 1017.3 11.1 SE 21.9 SE 0.0 845.0
10:45 30.8 48.1 1017.3 9.8 SE 20.1 SE 0.0 850.0
10:50 30.7 49.9 1017.2 11.2 SE 20.5 ESE 0.0 852.0
10:55 30.7 49.2 1017.2 13.3 SE 22.2 SE 0.0 856.0
11:00 30.8 49.9 1017.1 10.9 SSE 20.8 SE 0.0 858.0
11:05 30.8 50.3 1017.1 11.4 SSE 19.1 SE 0.0 867.0
11:10 30.8 50.2 1017.0 13.1 SSE 24.3 SE 0.0 875.0
11:15 30.8 50.3 1017.0 11.9 SSE 24.0 S 0.0 878.0
11:20 30.6 50.6 1017.0 11.4 S 19.1 S 0.0 874.0
11:25 30.7 51.5 1016.9 11.6 SE 21.2 SE 0.0 872.0
11:30 30.7 51.9 1016.9 15.0 SE 25.8 ESE 0.0 876.0
11:35 30.6 52.1 1016.9 11.5 SSE 20.1 S 0.0 872.0
11:40 30.6 51.0 1016.9 12.7 SSE 22.2 S 0.0 878.0
11:45 30.8 50.6 1016.7 13.7 SE 23.3 ESE 0.0 879.0
11:50 30.7 50.6 1016.7 12.8 SE 23.6 SE 0.0 880.0
11:55 30.9 49.2 1016.7 11.0 SSE 23.6 SSE 0.0 874.0
12:00 31.0 47.8 1016.7 12.2 SE 19.1 SE 0.0 870.0
12:05 30.9 47.0 1016.7 12.5 SSE 21.9 S 0.0 870.0
12:10 30.8 46.5 1016.7 10.3 S 26.8 SSE 0.0 878.0
12:15 31.1 46.0 1016.6 11.5 SSE 26.5 SSE 0.0 873.0
12:20 31.0 45.2 1016.6 12.6 SSE 22.9 SSE 0.0 872.0
12:25 31.2 45.7 1016.6 9.6 S 18.7 SE 0.0 873.0
12:30 31.2 43.7 1016.5 13.0 SSE 21.9 SE 0.0 872.0
12:35 31.2 44.0 1016.5 10.6 SE 19.1 SSE 0.0 874.0
12:40 31.4 41.2 1016.4 13.4 S 23.6 SSE 0.0 871.0
12:45 31.1 40.5 1016.4 12.6 SSE 24.0 S 0.0 866.0
12:50 31.0 40.3 1016.4 13.7 SSE 28.9 ESE 0.0 860.0
12:55 31.2 41.4 1016.3 9.1 SSE 17.6 SSE 0.0 785.5
13:00 31.3 41.9 1016.2 11.1 SE 20.5 SSE 0.0 850.0
13:05 31.1 44.9 1016.2 13.1 SE 27.9 SE 0.0 843.0
13:10 31.0 47.0 1016.2 13.1 SSE 23.6 SSW 0.0 837.0
13:15 31.0 47.2 1016.2 14.4 SSE 23.6 SE 0.0 830.0
13:20 31.3 47.7 1016.2 10.1 SSE 19.8 SSW 0.0 823.0
13:25 31.5 46.3 1016.2 11.6 S 25.4 S 0.0 817.0
13:30 31.1 48.0 1016.1 12.6 SSE 22.2 SE 0.0 810.0
13:35 31.0 48.3 1016.1 12.3 SSE 21.5 ESE 0.0 804.0
13:40 30.9 49.7 1016.1 12.3 SE 21.9 SE 0.0 797.6
13:45 30.9 49.7 1016.0 11.6 SSE 21.9 ESE 0.0 787.7
13:50 31.1 49.9 1016.0 11.9 SSE 22.9 SSE 0.0 780.4
13:55 31.0 49.5 1016.1 10.6 S 18.7 SSE 0.0 771.0
14:00 31.0 49.7 1016.0 11.2 SSE 19.8 SE 0.0 764.1
14:05 30.7 51.9 1016.0 11.0 SE 19.8 SE 0.0 752.7
14:10 30.7 53.1 1015.9 12.1 SE 22.6 ESE 0.0 743.9
14:15 30.8 51.5 1015.9 12.7 SSE 20.1 SSE 0.0 734.9
14:20 30.6 51.5 1015.8 13.4 SSE 27.2 SSE 0.0 726.3
14:25 30.5 52.2 1015.7 13.3 SE 24.0 SE 0.0 717.1
14:30 30.5 52.7 1015.7 11.5 SE 21.2 SE 0.0 705.8
14:35 30.5 52.1 1015.7 11.1 SSE 19.8 SE 0.0 695.5
14:40 30.4 52.2 1015.7 12.6 SSE 20.8 S 0.0 685.7
14:45 30.1 53.0 1015.7 11.8 SSE 24.7 SE 0.0 674.5
14:50 30.0 54.3 1015.7 12.7 SE 22.6 ESE 0.0 663.4
14:55 29.9 54.2 1015.7 12.1 SSE 20.1 ESE 0.0 650.1
15:00 30.0 53.8 1015.7 9.7 SSE 19.1 S 0.0 639.9
15:05 29.9 53.9 1015.6 12.5 SSE 20.1 ESE 0.0 627.1
15:10 29.9 54.4 1015.6 10.4 SE 20.5 ESE 0.0 615.9
15:15 29.7 54.1 1015.6 10.4 SE 18.4 SSE 0.0 602.1
15:20 29.7 54.1 1015.6 10.4 SE 18.4 E 0.0 589.6
15:25 29.7 52.5 1015.5 10.3 SSE 16.6 ESE 0.0 576.1
15:30 29.6 53.0 1015.4 10.1 SE 17.6 SSE 0.0 562.6
15:35 29.5 53.3 1015.4 8.8 SE 14.8 SSE 0.0 549.6
15:40 29.6 52.7 1015.4 7.5 SE 15.5 S 0.0 537.0
15:45 29.8 50.6 1015.3 6.8 ESE 15.2 ESE 0.0 523.7
15:50 29.9 50.9 1015.3 7.6 SSE 13.8 SE 0.0 508.4
15:55 29.8 49.5 1015.3 8.4 ESE 13.1 E 0.0 493.8
16:00 29.7 49.9 1015.2 9.4 SSE 14.1 SSE 0.0 480.5
16:05 29.7 49.7 1015.1 6.7 S 11.3 S 0.0 466.6
16:10 29.7 52.1 1015.1 9.1 SSE 13.8 SE 0.0 450.8
16:15 29.4 52.9 1015.1 8.8 SSE 14.8 SE 0.0 437.6
16:20 29.4 53.4 1015.0 10.4 SSE 17.6 S 0.0 423.5
16:25 29.3 55.6 1015.0 9.3 SE 16.9 S 0.0 409.0
16:30 29.1 57.4 1015.0 9.8 SE 16.9 SE 0.0 391.4
16:35 28.7 58.8 1015.0 10.9 ESE 18.0 ESE 0.0 351.9
16:40 28.5 58.9 1014.9 10.4 ESE 17.3 SSE 0.0 359.4
16:45 28.4 59.0 1014.9 8.3 SE 16.2 SE 0.0 348.1
16:50 28.5 58.8 1014.9 7.9 SSE 13.4 SE 0.0 343.5
16:55 28.5 58.9 1014.9 10.1 SE 15.5 SSE 0.0 327.3
17:00 28.3 59.6 1014.9 9.5 SE 17.3 S 0.0 311.2
17:05 28.3 60.0 1015.0 6.4 SE 13.4 SE 0.0 293.8
17:10 28.2 59.3 1015.0 7.5 SE 13.1 SE 0.0 276.8
17:15 28.1 58.6 1015.0 6.6 SSE 11.3 SSE 0.0 262.1
17:20 28.2 58.9 1015.0 6.6 ESE 12.0 SE 0.0 247.1
17:25 28.1 59.0 1015.0 6.8 SE 10.2 SE 0.0 234.2
17:30 28.0 58.7 1015.0 6.9 SSE 10.2 SE 0.0 220.9
17:35 27.9 59.1 1015.0 8.6 SE 13.8 SE 0.0 206.7
17:40 27.5 59.7 1015.0 6.8 SSE 10.9 SE 0.0 189.9
17:45 27.5 60.0 1015.0 5.7 SE 9.2 ESE 0.0 171.9
17:50 27.5 60.6 1015.0 6.1 SE 9.9 SE 0.0 156.0
17:55 27.3 61.2 1015.0 5.3 SSE 8.5 SE 0.0 142.3
18:00 27.1 61.2 1015.0 6.0 SSE 10.9 S 0.0 111.2
18:05 26.9 61.6 1015.0 5.5 S 8.8 SSW 0.0 75.8
18:10 26.7 62.4 1015.0 4.5 SSE 9.2 SSE 0.0 51.0
18:15 26.5 63.0 1015.0 4.7 SSE 8.5 SSE 0.0 36.9
18:20 26.4 63.8 1015.1 3.4 S 6.7 S 0.0 33.3
18:25 26.2 64.7 1015.1 3.5 SSE 6.4 S 0.0 30.6
18:30 26.0 65.5 1015.1 3.7 S 6.7 S 0.0 27.8
18:35 25.9 66.5 1015.2 3.5 SE 6.4 SE 0.0 24.9
18:40 25.6 67.3 1015.2 2.5 SE 4.2 SE 0.0 22.3
18:45 25.5 68.0 1015.2 1.4 S 3.2 SE 0.0 19.6
18:50 25.3 68.3 1015.2 1.2 S 3.2 S 0.0 16.9
18:55 25.2 69.2 1015.2 1.7 SE 2.8 SE 0.0 14.2
19:00 25.1 69.5 1015.3 0.2 E 2.1 E 0.0 11.3
19:05 24.9 70.0 1015.3 0.6 SW 2.8 SW 0.0 8.4
19:10 24.7 70.3 1015.3 0.5 WSW 2.5 SW 0.0 5.5
19:15 24.6 70.5 1015.3 0.8 WSW 2.1 WSW 0.0 3.6
19:20 24.4 71.1 1015.3 1.2 WNW 1.8 WNW 0.0 2.4
19:25 24.2 71.7 1015.3 2.3 NW 3.2 WNW 0.0 1.4
19:30 24.1 72.0 1015.3 2.0 WNW 3.2 NW 0.0 0.8
19:35 23.9 72.6 1015.3 1.9 W 2.8 W 0.0 0.4
19:40 23.7 73.2 1015.3 2.0 WNW 2.8 W 0.0 0.2
19:45 23.6 73.6 1015.3 2.3 W 3.2 W 0.0 0.2
19:50 23.5 73.8 1015.4 3.1 WNW 4.2 W 0.0 0.1
19:55 23.4 74.2 1015.4 2.4 WNW 4.6 W 0.0 0.1
20:00 23.4 73.7 1015.4 3.2 W 4.6 W 0.0 0.1
20:05 23.5 73.5 1015.4 2.4 WNW 4.2 WNW 0.0 0.1
20:10 23.4 73.9 1015.4 1.6 NW 2.8 WNW 0.0 0.1
20:15 23.3 74.2 1015.5 1.5 NW 2.8 NW 0.0 0.1
20:20 23.1 74.8 1015.5 1.1 NNW 2.8 NNW 0.0 0.1
20:25 23.0 75.2 1015.5 1.8 NW 2.5 NW 0.0 0.1
20:30 22.9 75.7 1015.5 2.0 NW 2.8 NW 0.0 0.1
20:35 22.8 75.9 1015.5 3.0 NW 3.9 NW 0.0 0.1
20:40 22.6 76.2 1015.5 2.4 NW 3.5 WNW 0.0 0.1
20:45 22.6 76.6 1015.5 2.4 NW 3.5 NW 0.0 0.1
20:50 22.5 76.6 1015.6 2.4 NW 3.9 NW 0.0 0.1
20:55 22.5 76.8 1015.6 2.6 NNW 3.9 NNW 0.0 0.1
21:00 22.5 76.9 1015.6 1.3 NNW 3.5 NNW 0.0 0.1
21:05 22.5 77.0 1015.5 1.5 NNW 3.5 NNW 0.0 0.1
21:10 22.4 76.7 1015.5 2.3 NW 3.5 NW 0.0 0.1
21:15 22.2 77.2 1015.5 2.0 NW 2.8 NW 0.0 0.1
21:20 22.1 77.8 1015.5 1.7 NW 3.2 NW 0.0 0.1
21:25 22.0 78.0 1015.5 1.4 NW 2.8 NW 0.0 0.1
21:30 21.8 78.5 1015.4 1.5 NW 2.8 NW 0.0 0.1
21:35 21.8 78.6 1015.4 1.3 NW 2.8 NW 0.0 0.1
21:40 21.7 78.4 1015.4 0.8 WNW 2.1 WNW 0.0 0.1
Máxima 31.6 81.8 1018.9 15.0 SE 28.9 ESE 0.0 880.0
Mínima 20 38.5 1014.9
Total 0.0